createdAt,value
2023-10-23T00:00:11.784Z,97979.34
2023-10-23T00:02:41.405Z,97975.34
2023-10-23T00:05:10.941Z,97972.97
2023-10-23T00:07:42.044Z,97979.38
2023-10-23T00:10:11.468Z,97983.69
2023-10-23T00:12:41.975Z,97983.13
2023-10-23T00:15:11.301Z,97986.06
2023-10-23T00:17:40.478Z,97986.47
2023-10-23T00:20:11.985Z,97981.59
2023-10-23T00:22:44.591Z,97991.03
2023-10-23T00:25:13.450Z,97992.88
2023-10-23T00:27:42.316Z,97996.72
2023-10-23T00:30:12.310Z,97992.22
2023-10-23T00:32:42.191Z,97995.44
2023-10-23T00:35:12.093Z,97993.66
2023-10-23T00:37:42.706Z,97996.75
2023-10-23T00:40:12.432Z,97987.81
2023-10-23T00:42:42.292Z,97994.22
2023-10-23T00:45:11.643Z,97996.66
2023-10-23T00:47:41.073Z,97991.41
2023-10-23T00:50:11.388Z,97996.59
2023-10-23T00:52:41.735Z,97990.19
2023-10-23T00:55:14.075Z,97998.72
2023-10-23T00:57:44.743Z,98001.78
2023-10-23T01:00:14.952Z,98010.63
2023-10-23T01:02:45.138Z,98007.97
2023-10-23T01:05:14.237Z,98002.00
2023-10-23T01:07:43.674Z,97998.50
2023-10-23T01:10:14.752Z,97998.50
2023-10-23T01:12:43.991Z,98001.78
2023-10-23T01:15:13.112Z,98003.84
2023-10-23T01:17:46.517Z,98006.69
2023-10-23T01:20:17.085Z,98011.22
2023-10-23T01:22:46.226Z,98008.09
2023-10-23T01:25:17.974Z,98009.81
2023-10-23T01:27:47.804Z,98013.22
2023-10-23T01:30:18.169Z,98009.59
2023-10-23T01:32:47.675Z,98007.16
2023-10-23T01:35:18.083Z,98013.34
2023-10-23T01:37:48.992Z,98014.78
2023-10-23T01:40:20.583Z,98005.41
2023-10-23T01:42:51.330Z,98003.75
2023-10-23T01:45:21.733Z,98008.53
2023-10-23T01:47:51.765Z,98015.75
2023-10-23T01:50:21.857Z,98014.72
2023-10-23T01:52:55.131Z,98010.78
2023-10-23T01:55:32.623Z,98011.88
2023-10-23T01:58:01.736Z,98005.78
2023-10-23T02:00:30.951Z,98000.44
2023-10-23T02:03:02.437Z,98000.28
2023-10-23T02:05:33.604Z,98002.47
2023-10-23T02:08:03.822Z,98007.25
2023-10-23T02:10:34.169Z,98010.34
2023-10-23T02:13:04.116Z,98005.00
2023-10-23T02:15:32.950Z,98012.78
2023-10-23T02:18:01.988Z,98014.84
2023-10-23T02:20:30.580Z,98011.72
2023-10-23T02:23:00.029Z,98016.34
2023-10-23T02:25:29.941Z,98015.09
2023-10-23T02:28:02.176Z,98012.19
2023-10-23T02:30:31.817Z,98003.13
2023-10-23T02:33:01.123Z,98004.66
2023-10-23T02:35:30.055Z,98008.63
2023-10-23T02:37:59.820Z,98009.06
2023-10-23T02:40:29.328Z,98004.38
2023-10-23T02:43:00.384Z,98005.00
2023-10-23T02:45:29.819Z,98015.94
2023-10-23T02:47:59.240Z,98019.84
2023-10-23T02:50:28.904Z,98023.13
2023-10-23T02:52:58.604Z,98018.63
2023-10-23T02:55:28.296Z,98024.59
2023-10-23T02:57:58.324Z,98025.63
2023-10-23T03:00:34.051Z,98022.38
2023-10-23T03:03:03.475Z,98023.84
2023-10-23T03:05:33.823Z,98021.41
2023-10-23T03:08:04.040Z,98027.63
2023-10-23T03:10:34.823Z,98021.25
2023-10-23T03:13:05.457Z,98026.75
2023-10-23T03:15:37.502Z,98026.13
2023-10-23T03:18:07.734Z,98036.84
2023-10-23T03:20:38.059Z,98038.09
2023-10-23T03:23:08.469Z,98038.31
2023-10-23T03:25:37.659Z,98037.91
2023-10-23T03:28:07.065Z,98034.81
2023-10-23T03:30:38.271Z,98032.78
2023-10-23T03:33:09.188Z,98027.44
2023-10-23T03:35:45.467Z,98029.91
2023-10-23T03:38:15.816Z,98027.44
2023-10-23T03:40:59.831Z,98032.97
2023-10-23T03:43:30.059Z,98034.63
2023-10-23T03:46:05.232Z,98032.63
2023-10-23T03:48:36.212Z,98030.13
2023-10-23T03:51:07.581Z,98029.09
2023-10-23T03:53:39.095Z,98035.06
2023-10-23T03:56:10.145Z,98036.88
2023-10-23T03:58:39.011Z,98033.22
2023-10-23T04:01:09.441Z,98036.09
2023-10-23T04:03:38.394Z,98033.25
2023-10-23T04:06:07.843Z,98034.28
2023-10-23T04:08:36.686Z,98035.53
2023-10-23T04:11:09.810Z,98035.34
2023-10-23T04:13:39.287Z,98031.25
2023-10-23T04:16:09.733Z,98040.66
2023-10-23T04:18:40.174Z,98036.16
2023-10-23T04:21:10.794Z,98034.50
2023-10-23T04:23:41.198Z,98035.53
2023-10-23T04:26:10.708Z,98033.69
2023-10-23T04:28:40.187Z,98031.06
2023-10-23T04:31:11.246Z,98036.78
2023-10-23T04:33:40.387Z,98031.69
2023-10-23T04:36:11.240Z,98038.66
2023-10-23T04:38:40.364Z,98043.78
2023-10-23T04:41:10.255Z,98041.34
2023-10-23T04:43:39.667Z,98031.31
2023-10-23T04:46:10.897Z,98029.44
2023-10-23T04:48:40.279Z,98038.69
2023-10-23T04:51:09.634Z,98044.44
2023-10-23T04:53:39.011Z,98041.78
2023-10-23T04:56:09.560Z,98045.88
2023-10-23T04:58:39.566Z,98032.31
2023-10-23T05:01:18.833Z,98034.13
2023-10-23T05:03:51.625Z,98030.03
2023-10-23T05:06:26.372Z,98040.72
2023-10-23T05:08:56.519Z,98036.81
2023-10-23T05:11:25.742Z,98038.03
2023-10-23T05:14:00.318Z,98031.47
2023-10-23T05:16:30.701Z,98022.63
2023-10-23T05:19:00.000Z,98030.00
2023-10-23T05:21:29.447Z,98017.88
2023-10-23T05:23:58.995Z,98022.41
2023-10-23T05:26:28.020Z,98020.38
2023-10-23T05:28:58.843Z,98024.28
2023-10-23T05:31:27.726Z,98021.56
2023-10-23T05:33:59.473Z,98023.22
2023-10-23T05:36:30.648Z,98026.09
2023-10-23T05:39:00.594Z,98021.19
2023-10-23T05:41:29.477Z,98029.78
2023-10-23T05:43:58.753Z,98027.09
2023-10-23T05:46:28.091Z,98038.00
2023-10-23T05:49:01.180Z,98037.22
2023-10-23T05:51:29.975Z,98042.34
2023-10-23T05:53:59.502Z,98046.25
2023-10-23T05:56:29.466Z,98046.25
2023-10-23T05:58:58.209Z,98045.84
2023-10-23T06:01:27.025Z,98049.34
2023-10-23T06:03:56.283Z,98053.66
2023-10-23T06:06:27.612Z,98053.03
2023-10-23T06:08:57.353Z,98057.16
2023-10-23T06:11:26.872Z,98057.16
2023-10-23T06:13:55.622Z,98059.81
2023-10-23T06:16:24.919Z,98061.22
2023-10-23T06:18:54.686Z,98067.19
2023-10-23T06:21:24.322Z,98063.91
2023-10-23T06:23:54.661Z,98066.34
2023-10-23T06:26:23.484Z,98063.72
2023-10-23T06:28:52.702Z,98064.31
2023-10-23T06:31:22.501Z,98057.75
2023-10-23T06:33:53.159Z,98064.13
2023-10-23T06:36:22.164Z,98064.50
2023-10-23T06:38:51.322Z,98067.63
2023-10-23T06:41:21.443Z,98075.59
2023-10-23T06:43:51.073Z,98075.78
2023-10-23T06:46:21.023Z,98081.75
2023-10-23T06:48:50.809Z,98081.97
2023-10-23T06:51:21.137Z,98078.66
2023-10-23T06:53:50.431Z,98073.31
2023-10-23T06:56:19.284Z,98074.97
2023-10-23T06:58:49.415Z,98079.69
2023-10-23T07:01:23.881Z,98066.53
2023-10-23T07:03:59.799Z,98066.91
2023-10-23T07:06:29.877Z,98060.31
2023-10-23T07:09:01.139Z,98065.41
2023-10-23T07:11:31.823Z,98070.28
2023-10-23T07:14:03.570Z,98074.13
2023-10-23T07:16:33.920Z,98072.22
2023-10-23T07:19:06.188Z,98076.97
2023-10-23T07:21:35.554Z,98065.00
2023-10-23T07:24:05.893Z,98063.19
2023-10-23T07:26:34.703Z,98065.25
2023-10-23T07:29:05.090Z,98056.97
2023-10-23T07:31:34.238Z,98068.25
2023-10-23T07:34:05.886Z,98058.34
2023-10-23T07:36:35.165Z,98054.41
2023-10-23T07:39:04.515Z,98052.53
2023-10-23T07:41:34.206Z,98054.88
2023-10-23T07:44:05.588Z,98066.28
2023-10-23T07:46:35.741Z,98059.53
2023-10-23T07:49:04.802Z,98052.88
2023-10-23T07:51:34.208Z,98048.13
2023-10-23T07:54:04.951Z,98042.50
2023-10-23T07:56:33.983Z,98032.25
2023-10-23T07:59:05.418Z,98041.81
2023-10-23T08:01:34.283Z,98044.41
2023-10-23T08:04:08.095Z,98044.28
2023-10-23T08:06:38.949Z,98051.72
2023-10-23T08:09:09.488Z,98053.63
2023-10-23T08:11:38.721Z,98042.41
2023-10-23T08:14:13.713Z,98037.78
2023-10-23T08:16:42.634Z,98037.94
2023-10-23T08:19:12.767Z,98031.63
2023-10-23T08:21:41.985Z,98033.03
2023-10-23T08:24:11.789Z,98026.41
2023-10-23T08:26:40.923Z,98021.19
2023-10-23T08:29:10.440Z,98032.25
2023-10-23T08:31:41.030Z,98033.72
2023-10-23T08:34:10.799Z,98020.50
2023-10-23T08:36:40.071Z,98034.97
2023-10-23T08:39:09.501Z,98020.34
2023-10-23T08:41:42.539Z,98028.81
2023-10-23T08:44:12.449Z,98033.06
2023-10-23T08:46:43.694Z,98025.66
2023-10-23T08:49:15.957Z,98031.25
2023-10-23T08:51:50.023Z,98036.19
2023-10-23T08:54:21.312Z,98032.06
2023-10-23T08:56:57.624Z,98035.66
2023-10-23T08:59:27.177Z,98032.69
2023-10-23T09:02:01.981Z,98031.31
2023-10-23T09:04:32.922Z,98023.53
2023-10-23T09:07:02.454Z,98013.94
2023-10-23T09:09:32.050Z,98009.81
2023-10-23T09:12:02.871Z,98006.63
2023-10-23T09:14:33.365Z,98003.56
2023-10-23T09:17:06.225Z,97995.72
2023-10-23T09:19:38.034Z,97997.53
2023-10-23T09:22:13.537Z,97998.97
2023-10-23T09:24:46.405Z,97993.34
2023-10-23T09:27:16.732Z,97991.44
2023-10-23T09:29:46.669Z,97991.53
2023-10-23T09:32:21.046Z,97989.97
2023-10-23T09:34:50.330Z,97990.78
2023-10-23T09:37:20.085Z,97990.81
2023-10-23T09:39:48.793Z,97985.03
2023-10-23T09:42:19.346Z,97983.47
2023-10-23T09:44:51.161Z,97984.06
2023-10-23T09:47:22.990Z,97982.38
2023-10-23T09:49:57.065Z,97991.47
2023-10-23T09:52:28.585Z,97981.97
2023-10-23T09:55:02.376Z,97986.75
2023-10-23T09:57:36.269Z,97982.13
2023-10-23T10:00:14.284Z,97978.75
2023-10-23T10:02:48.258Z,97983.69
2023-10-23T10:05:22.949Z,97991.06
2023-10-23T10:08:01.539Z,97992.47
2023-10-23T10:10:38.205Z,97989.84
2023-10-23T10:13:08.768Z,97971.22
2023-10-23T10:15:40.987Z,97965.63
2023-10-23T10:18:13.244Z,97975.47
2023-10-23T10:20:45.496Z,97980.56
2023-10-23T10:23:18.043Z,97967.34
2023-10-23T10:25:49.045Z,97967.53
2023-10-23T10:28:31.399Z,97966.44
2023-10-23T10:31:00.617Z,97962.72
2023-10-23T10:34:27.990Z,97959.16
2023-10-23T10:36:41.528Z,97956.94
2023-10-23T10:39:15.814Z,97934.78
2023-10-23T10:41:47.687Z,97932.09
2023-10-23T10:44:21.050Z,97923.66
2023-10-23T10:46:56.025Z,97923.13
2023-10-23T10:49:28.102Z,97915.78
2023-10-23T10:51:57.376Z,97929.91
2023-10-23T10:54:35.060Z,97915.59
2023-10-23T10:57:05.797Z,97909.69
2023-10-23T10:59:36.301Z,97917.88
2023-10-23T11:02:08.459Z,97922.47
2023-10-23T11:04:39.711Z,97920.56
2023-10-23T11:07:10.265Z,97915.41
2023-10-23T11:09:39.281Z,97904.41
2023-10-23T11:12:09.513Z,97910.59
2023-10-23T11:14:39.380Z,97896.75
2023-10-23T11:17:09.688Z,97896.00
2023-10-23T11:19:42.714Z,97896.13
2023-10-23T11:22:13.327Z,97883.47
2023-10-23T11:24:42.427Z,97888.38
2023-10-23T11:27:12.321Z,97881.13
2023-10-23T11:29:44.627Z,97878.41
2023-10-23T11:32:15.036Z,97883.53
2023-10-23T11:34:47.129Z,97877.34
2023-10-23T11:37:16.199Z,97883.84
2023-10-23T11:39:45.004Z,97873.00
2023-10-23T11:42:15.681Z,97868.41
2023-10-23T11:44:44.489Z,97870.28
2023-10-23T11:47:13.924Z,97863.03
2023-10-23T11:49:51.882Z,97863.03
2023-10-23T11:52:23.520Z,97854.38
2023-10-23T11:54:53.578Z,97848.66
2023-10-23T11:57:24.647Z,97847.06
2023-10-23T11:59:54.140Z,97841.09
2023-10-23T12:02:23.220Z,97837.88
2023-10-23T12:04:53.520Z,97834.34
2023-10-23T12:07:22.715Z,97840.56
2023-10-23T12:09:52.019Z,97837.31
2023-10-23T12:12:21.416Z,97830.81
2023-10-23T12:14:50.725Z,97824.06
2023-10-23T12:17:20.554Z,97829.19
2023-10-23T12:19:50.111Z,97826.72
2023-10-23T12:22:20.769Z,97827.03
2023-10-23T12:24:51.369Z,97818.91
2023-10-23T12:30:06.967Z,97816.72
2023-10-23T12:33:14.779Z,97817.25
2023-10-23T12:35:34.173Z,97806.09
2023-10-23T12:38:06.134Z,97809.09
2023-10-23T12:40:37.275Z,97812.56
2023-10-23T12:43:07.870Z,97807.22
2023-10-23T12:45:37.786Z,97804.00
2023-10-23T12:48:08.237Z,97799.94
2023-10-23T12:50:39.208Z,97801.28
2023-10-23T12:53:10.666Z,97794.03
2023-10-23T12:55:41.522Z,97788.88
2023-10-23T12:58:12.169Z,97786.19
2023-10-23T13:00:41.918Z,97781.03
2023-10-23T13:03:12.400Z,97777.50
2023-10-23T13:05:42.641Z,97762.94
2023-10-23T13:08:15.847Z,97761.03
2023-10-23T13:10:47.557Z,97752.09
2023-10-23T13:13:19.466Z,97752.91
2023-10-23T13:15:51.272Z,97748.59
2023-10-23T13:18:20.684Z,97738.59
2023-10-23T13:21:30.611Z,97738.03
2023-10-23T13:23:40.751Z,97734.00
2023-10-23T13:26:13.813Z,97736.97
2023-10-23T13:28:51.158Z,97732.09
2023-10-23T13:31:20.451Z,97727.78
2023-10-23T13:33:51.480Z,97723.44
2023-10-23T13:36:21.432Z,97718.56
2023-10-23T13:38:56.332Z,97712.88
2023-10-23T13:41:28.323Z,97710.19
2023-10-23T13:43:59.032Z,97706.41
2023-10-23T13:46:28.268Z,97709.91
2023-10-23T13:48:58.323Z,97708.59
2023-10-23T13:51:27.649Z,97723.41
2023-10-23T13:53:58.770Z,97722.91
2023-10-23T13:56:29.127Z,97724.22
2023-10-23T13:58:58.177Z,97731.81
2023-10-23T14:01:27.903Z,97729.94
2023-10-23T14:03:58.938Z,97717.50
2023-10-23T14:06:29.373Z,97702.63
2023-10-23T14:09:40.326Z,97698.00
2023-10-23T14:12:00.822Z,97704.50
2023-10-23T14:14:30.925Z,97697.19
2023-10-23T14:17:01.559Z,97696.09
2023-10-23T14:19:45.745Z,97679.00
2023-10-23T14:22:17.450Z,97688.50
2023-10-23T14:24:50.016Z,97688.22
2023-10-23T14:27:20.020Z,97682.84
2023-10-23T14:29:51.093Z,97679.09
2023-10-23T14:32:20.299Z,97683.69
2023-10-23T14:34:49.692Z,97679.09
2023-10-23T14:37:19.078Z,97662.09
2023-10-23T14:39:49.674Z,97658.03
2023-10-23T14:42:20.485Z,97652.63
2023-10-23T14:44:50.796Z,97641.25
2023-10-23T14:47:22.722Z,97623.72
2023-10-23T14:49:53.994Z,97615.34
2023-10-23T14:52:24.217Z,97615.03
2023-10-23T14:54:57.118Z,97606.13
2023-10-23T14:57:26.696Z,97602.09
2023-10-23T14:59:57.314Z,97603.97
2023-10-23T15:02:27.931Z,97603.97
2023-10-23T15:04:57.286Z,97596.69
2023-10-23T15:07:27.401Z,97591.84
2023-10-23T15:09:58.274Z,97597.50
2023-10-23T15:12:28.046Z,97592.66
2023-10-23T15:14:58.274Z,97597.25
2023-10-23T15:17:28.518Z,97591.88
2023-10-23T15:19:57.624Z,97589.69
2023-10-23T15:22:29.602Z,97574.59
2023-10-23T15:25:00.355Z,97580.25
2023-10-23T15:27:29.970Z,97582.94
2023-10-23T15:29:59.196Z,97580.78
2023-10-23T15:32:28.042Z,97584.84
2023-10-23T15:34:58.136Z,97586.16
2023-10-23T15:37:28.551Z,97574.84
2023-10-23T15:40:00.264Z,97579.44
2023-10-23T15:42:29.983Z,97581.59
2023-10-23T15:45:01.554Z,97580.00
2023-10-23T15:47:32.902Z,97583.50
2023-10-23T15:50:04.314Z,97583.22
2023-10-23T15:52:36.737Z,97579.19
2023-10-23T15:55:12.240Z,97589.16
2023-10-23T15:57:42.036Z,97577.28
2023-10-23T16:00:13.743Z,97569.19
2023-10-23T16:02:42.734Z,97557.00
2023-10-23T16:05:11.963Z,97553.22
2023-10-23T16:07:45.774Z,97548.66
2023-10-23T16:10:16.625Z,97553.47
2023-10-23T16:12:45.767Z,97560.19
2023-10-23T16:15:17.295Z,97556.34
2023-10-23T16:17:46.763Z,97551.44
2023-10-23T16:20:16.535Z,97555.72
2023-10-23T16:22:49.506Z,97543.88
2023-10-23T16:25:22.234Z,97538.72
2023-10-23T16:27:53.613Z,97523.09
2023-10-23T16:30:23.892Z,97517.94
2023-10-23T16:32:55.273Z,97521.44
2023-10-23T16:35:26.328Z,97513.81
2023-10-23T16:37:56.577Z,97508.69
2023-10-23T16:40:27.984Z,97503.31
2023-10-23T16:42:57.374Z,97502.50
2023-10-23T16:45:28.842Z,97501.69
2023-10-23T16:47:58.955Z,97497.13
2023-10-23T16:50:29.490Z,97494.41
2023-10-23T16:53:00.056Z,97482.75
2023-10-23T16:55:30.907Z,97470.38
2023-10-23T16:58:01.148Z,97470.38
2023-10-23T17:00:32.634Z,97462.78
2023-10-23T17:03:03.123Z,97470.34
2023-10-23T17:05:36.968Z,97468.97
2023-10-23T17:08:06.500Z,97463.28
2023-10-23T17:10:38.274Z,97454.38
2023-10-23T17:13:07.317Z,97457.09
2023-10-23T17:15:42.388Z,97462.47
2023-10-23T17:18:11.476Z,97468.44
2023-10-23T17:20:48.001Z,97470.81
2023-10-23T17:23:19.372Z,97462.97
2023-10-23T17:25:51.124Z,97456.53
2023-10-23T17:28:24.298Z,97451.41
2023-10-23T17:30:58.902Z,97443.63
2023-10-23T17:33:31.147Z,97453.59
2023-10-23T17:36:01.807Z,97453.03
2023-10-23T17:38:31.012Z,97449.78
2023-10-23T17:41:01.759Z,97451.34
2023-10-23T17:43:32.520Z,97453.44
2023-10-23T17:46:05.304Z,97446.69
2023-10-23T17:48:33.969Z,97436.16
2023-10-23T17:51:04.866Z,97429.13
2023-10-23T17:53:37.138Z,97439.94
2023-10-23T17:56:10.796Z,97434.84
2023-10-23T17:58:41.285Z,97434.81
2023-10-23T18:01:15.942Z,97430.78
2023-10-23T18:03:51.690Z,97433.47
2023-10-23T18:06:21.098Z,97431.00
2023-10-23T18:08:52.489Z,97435.78
2023-10-23T18:11:23.138Z,97433.91
2023-10-23T18:13:53.158Z,97428.78
2023-10-23T18:16:25.314Z,97426.63
2023-10-23T18:18:56.029Z,97415.88
2023-10-23T18:21:25.785Z,97413.97
2023-10-23T18:23:55.087Z,97411.03
2023-10-23T18:26:26.320Z,97399.47
2023-10-23T18:28:58.789Z,97410.22
2023-10-23T18:31:28.953Z,97408.06
2023-10-23T18:34:01.701Z,97409.16
2023-10-23T18:36:35.681Z,97411.84
2023-10-23T18:39:05.504Z,97404.84
2023-10-23T18:41:41.729Z,97415.31
2023-10-23T18:44:13.492Z,97414.19
2023-10-23T18:46:42.922Z,97406.38
2023-10-23T18:49:11.986Z,97410.13
2023-10-23T18:51:41.123Z,97412.03
2023-10-23T18:54:10.237Z,97416.88
2023-10-23T18:56:41.285Z,97408.25
2023-10-23T18:59:16.438Z,97414.75
2023-10-23T19:01:45.866Z,97412.34
2023-10-23T19:04:16.037Z,97405.34
2023-10-23T19:06:46.336Z,97394.34
2023-10-23T19:09:16.185Z,97400.50
2023-10-23T19:11:49.514Z,97397.00
2023-10-23T19:14:20.517Z,97397.81
2023-10-23T19:16:53.189Z,97398.03
2023-10-23T19:19:23.353Z,97394.47
2023-10-23T19:21:59.852Z,97396.38
2023-10-23T19:24:29.000Z,97395.56
2023-10-23T19:26:59.606Z,97392.88
2023-10-23T19:29:28.648Z,97404.66
2023-10-23T19:32:00.734Z,97402.97
2023-10-23T19:34:34.136Z,97415.47
2023-10-23T19:37:03.692Z,97423.53
2023-10-23T19:39:33.489Z,97427.44
2023-10-23T19:42:08.014Z,97425.00
2023-10-23T19:44:37.618Z,97436.00
2023-10-23T19:47:11.108Z,97435.19
2023-10-23T19:49:48.049Z,97426.25
2023-10-23T19:52:20.502Z,97446.16
2023-10-23T19:54:50.987Z,97439.03
2023-10-23T19:57:22.443Z,97444.88
2023-10-23T19:59:55.073Z,97439.31
2023-10-23T20:02:23.945Z,97445.84
2023-10-23T20:04:54.122Z,97442.81
2023-10-23T20:07:32.781Z,97445.50
2023-10-23T20:10:02.250Z,97444.69
2023-10-23T20:12:37.177Z,97440.84
2023-10-23T20:15:07.304Z,97448.09
2023-10-23T20:17:36.968Z,97448.13
2023-10-23T20:20:06.781Z,97452.38
2023-10-23T20:22:36.440Z,97455.31
2023-10-23T20:25:07.059Z,97459.81
2023-10-23T20:27:37.742Z,97455.22
2023-10-23T20:30:08.288Z,97461.41
2023-10-23T20:32:37.677Z,97458.78
2023-10-23T20:35:07.927Z,97463.53
2023-10-23T20:37:37.481Z,97453.41
2023-10-23T20:40:08.469Z,97448.66
2023-10-23T20:42:41.724Z,97439.25
2023-10-23T20:45:13.357Z,97437.06
2023-10-23T20:47:43.051Z,97431.69
2023-10-23T20:50:13.627Z,97415.94
2023-10-23T20:52:43.574Z,97417.19
2023-10-23T20:55:12.625Z,97420.94
2023-10-23T20:57:43.442Z,97428.88
2023-10-23T21:00:15.802Z,97422.97
2023-10-23T21:02:46.644Z,97428.88
2023-10-23T21:05:15.688Z,97425.66
2023-10-23T21:07:45.747Z,97416.25
2023-10-23T21:10:16.996Z,97418.19
2023-10-23T21:12:47.809Z,97416.00
2023-10-23T21:15:17.014Z,97424.56
2023-10-23T21:17:46.753Z,97414.88
2023-10-23T21:20:17.434Z,97415.47
2023-10-23T21:22:48.583Z,97402.28
2023-10-23T21:25:19.939Z,97403.84
2023-10-23T21:27:52.053Z,97405.75
2023-10-23T21:30:21.065Z,97414.63
2023-10-23T21:32:50.079Z,97409.28
2023-10-23T21:35:19.151Z,97403.31
2023-10-23T21:37:50.116Z,97396.03
2023-10-23T21:40:20.208Z,97391.44
2023-10-23T21:42:56.453Z,97402.53
2023-10-23T21:45:28.332Z,97392.31
2023-10-23T21:47:57.528Z,97392.56
2023-10-23T21:50:26.432Z,97392.03
2023-10-23T21:52:57.583Z,97397.56
2023-10-23T21:55:32.952Z,97398.91
2023-10-23T21:58:05.154Z,97407.31
2023-10-23T22:00:37.422Z,97404.38
2023-10-23T22:03:07.683Z,97415.84
2023-10-23T22:05:37.505Z,97426.25
2023-10-23T22:08:10.567Z,97431.19
2023-10-23T22:10:42.123Z,97432.72
2023-10-23T22:13:13.871Z,97447.75
2023-10-23T22:15:45.748Z,97441.59
2023-10-23T22:18:14.947Z,97446.72
2023-10-23T22:20:44.315Z,97447.16
2023-10-23T22:23:14.316Z,97447.22
2023-10-23T22:25:43.209Z,97451.41
2023-10-23T22:28:13.776Z,97444.88
2023-10-23T22:30:43.599Z,97428.63
2023-10-23T22:33:18.037Z,97439.38
2023-10-23T22:35:47.988Z,97433.72
2023-10-23T22:38:16.854Z,97443.97
2023-10-23T22:40:46.259Z,97444.84
2023-10-23T22:43:17.783Z,97442.19
2023-10-23T22:45:55.890Z,97439.03
2023-10-23T22:48:31.791Z,97447.16
2023-10-23T22:51:01.326Z,97445.25
2023-10-23T22:53:31.133Z,97453.09
2023-10-23T22:56:04.206Z,97441.31
2023-10-23T22:58:39.214Z,97441.91
2023-10-23T23:01:11.639Z,97418.91
2023-10-23T23:03:42.895Z,97405.53
2023-10-23T23:06:13.601Z,97397.47
2023-10-23T23:08:47.214Z,97397.47
2023-10-23T23:11:15.669Z,97388.78
2023-10-23T23:13:47.033Z,97380.19
2023-10-23T23:16:19.770Z,97398.91
2023-10-23T23:18:51.136Z,97439.28
2023-10-23T23:21:24.038Z,97456.69
2023-10-23T23:23:54.639Z,97440.31
2023-10-23T23:26:23.556Z,97407.00
2023-10-23T23:28:55.336Z,97415.88
2023-10-23T23:31:25.164Z,97431.78
2023-10-23T23:33:55.842Z,97456.97
2023-10-23T23:36:25.736Z,97480.72
2023-10-23T23:38:58.045Z,97481.16
2023-10-23T23:41:27.825Z,97474.09
2023-10-23T23:43:59.065Z,97467.66
2023-10-23T23:46:28.104Z,97458.84
2023-10-23T23:48:57.078Z,97450.97
2023-10-23T23:51:26.158Z,97442.84
2023-10-23T23:53:55.329Z,97443.91
2023-10-23T23:56:25.656Z,97442.22
2023-10-23T23:58:54.870Z,97449.53
